createdAt,value
2022-08-12T00:02:44.809Z,36.24
2022-08-12T00:05:31.547Z,37.00
2022-08-12T00:08:16.936Z,36.26
2022-08-12T00:11:14.300Z,36.58
2022-08-12T00:13:59.486Z,37.17
2022-08-12T00:16:47.779Z,38.22
2022-08-12T00:19:34.121Z,38.58
2022-08-12T00:22:19.379Z,38.75
2022-08-12T00:25:06.248Z,39.22
2022-08-12T00:27:51.584Z,38.87
2022-08-12T00:30:36.362Z,38.76
2022-08-12T00:33:22.233Z,39.44
2022-08-12T00:36:32.218Z,38.69
2022-08-12T00:39:17.270Z,37.09
2022-08-12T00:42:02.829Z,37.69
2022-08-12T00:44:29.499Z,37.97
2022-08-12T00:47:01.187Z,38.32
2022-08-12T00:49:29.493Z,39.26
2022-08-12T00:52:06.446Z,39.54
2022-08-12T00:54:41.431Z,39.52
2022-08-12T00:57:15.433Z,38.68
2022-08-12T00:59:50.732Z,37.80
2022-08-12T01:02:26.240Z,39.11
2022-08-12T01:05:17.369Z,38.00
2022-08-12T01:08:06.874Z,38.00
2022-08-12T01:10:55.261Z,39.43
2022-08-12T01:13:22.681Z,39.45
2022-08-12T01:15:54.620Z,40.15
2022-08-12T01:18:24.433Z,40.98
2022-08-12T01:21:06.628Z,39.24
2022-08-12T01:23:58.027Z,38.02
2022-08-12T01:26:25.443Z,38.49
2022-08-12T01:28:58.827Z,38.72
2022-08-12T01:31:29.158Z,38.89
2022-08-12T01:34:03.534Z,39.88
2022-08-12T01:36:37.348Z,39.42
2022-08-12T01:39:05.018Z,39.98
2022-08-12T01:41:36.096Z,39.35
2022-08-12T01:44:03.921Z,40.67
2022-08-12T01:47:03.774Z,40.90
2022-08-12T01:50:07.464Z,42.17
2022-08-12T01:52:54.928Z,41.54
2022-08-12T01:55:33.286Z,40.54
2022-08-12T01:58:11.764Z,41.68
2022-08-12T02:00:55.422Z,40.20
2022-08-12T02:03:58.186Z,39.46
2022-08-12T02:07:06.428Z,39.56
2022-08-12T02:10:01.620Z,40.66
2022-08-12T02:13:02.139Z,40.46
2022-08-12T02:15:56.314Z,40.13
2022-08-12T02:18:49.028Z,41.36
2022-08-12T02:21:46.676Z,40.49
2022-08-12T02:24:20.476Z,41.02
2022-08-12T02:26:49.097Z,41.20
2022-08-12T02:29:19.035Z,42.04
2022-08-12T02:31:47.628Z,42.26
2022-08-12T02:34:16.529Z,43.11
2022-08-12T02:36:45.035Z,44.12
2022-08-12T02:39:16.278Z,44.32
2022-08-12T02:41:46.364Z,42.84
2022-08-12T02:44:16.229Z,42.08
2022-08-12T02:46:50.301Z,43.15
2022-08-12T02:49:25.548Z,43.21
2022-08-12T02:51:52.244Z,42.17
2022-08-12T02:54:19.903Z,41.89
2022-08-12T02:56:50.441Z,41.81
2022-08-12T02:59:21.343Z,41.76
2022-08-12T03:01:56.149Z,41.66
2022-08-12T03:04:40.223Z,42.35
2022-08-12T03:07:10.045Z,42.18
2022-08-12T03:10:04.789Z,42.26
2022-08-12T03:12:43.656Z,42.33
2022-08-12T03:15:22.205Z,42.54
2022-08-12T03:18:27.526Z,42.78
2022-08-12T03:20:43.044Z,43.31
2022-08-12T03:23:23.083Z,43.37
2022-08-12T03:26:01.762Z,43.68
2022-08-12T03:28:50.036Z,43.66
2022-08-12T03:31:19.613Z,43.58
2022-08-12T03:34:01.626Z,43.69
2022-08-12T03:36:33.880Z,43.66
2022-08-12T03:39:36.084Z,43.45
2022-08-12T03:42:38.367Z,43.97
2022-08-12T03:45:29.747Z,44.01
2022-08-12T03:48:19.172Z,44.43
2022-08-12T03:51:06.587Z,45.01
2022-08-12T03:53:52.210Z,46.63
2022-08-12T03:56:37.746Z,47.24
2022-08-12T03:59:25.075Z,47.85
2022-08-12T04:01:57.521Z,47.66
2022-08-12T04:04:34.732Z,46.54
2022-08-12T04:07:04.439Z,46.65
2022-08-12T04:09:34.743Z,46.17
2022-08-12T04:12:22.758Z,46.21
2022-08-12T04:14:54.541Z,46.04
2022-08-12T04:17:22.037Z,45.83
2022-08-12T04:19:49.209Z,45.81
2022-08-12T04:22:16.549Z,46.06
2022-08-12T04:24:44.242Z,46.58
2022-08-12T04:27:17.181Z,46.60
2022-08-12T04:30:30.175Z,46.49
2022-08-12T04:32:32.010Z,46.49
2022-08-12T04:34:58.973Z,46.15
2022-08-12T04:37:25.578Z,45.97
2022-08-12T04:39:53.946Z,47.19
2022-08-12T04:42:21.611Z,46.45
2022-08-12T04:44:48.504Z,46.43
2022-08-12T04:47:16.880Z,46.28
2022-08-12T04:49:45.850Z,45.97
2022-08-12T04:52:12.708Z,46.05
2022-08-12T04:54:39.195Z,44.52
2022-08-12T04:57:09.741Z,45.07
2022-08-12T04:59:47.888Z,44.49
2022-08-12T05:02:22.948Z,44.29
2022-08-12T05:04:56.177Z,44.37
2022-08-12T05:07:28.178Z,44.59
2022-08-12T05:10:00.962Z,44.05
2022-08-12T05:12:34.691Z,44.13
2022-08-12T05:15:01.693Z,43.72
2022-08-12T05:17:28.504Z,44.30
2022-08-12T05:19:57.424Z,43.29
2022-08-12T05:22:26.195Z,43.88
2022-08-12T05:24:53.157Z,43.74
2022-08-12T05:27:19.642Z,42.79
2022-08-12T05:30:07.295Z,42.55
2022-08-12T05:32:37.090Z,42.10
2022-08-12T05:35:06.803Z,42.59
2022-08-12T05:37:34.816Z,42.92
2022-08-12T05:40:05.657Z,42.33
2022-08-12T05:42:35.145Z,42.03
2022-08-12T05:45:01.629Z,42.11
2022-08-12T05:47:36.553Z,41.04
2022-08-12T05:50:15.880Z,41.31
2022-08-12T05:52:42.562Z,41.16
2022-08-12T05:55:10.316Z,40.36
2022-08-12T05:57:38.436Z,40.04
2022-08-12T06:00:06.088Z,40.38
2022-08-12T06:02:32.539Z,40.09
2022-08-12T06:05:00.289Z,38.74
2022-08-12T06:07:59.650Z,38.73
2022-08-12T06:10:13.645Z,37.91
2022-08-12T06:12:40.283Z,37.59
2022-08-12T06:15:07.253Z,37.47
2022-08-12T06:17:33.817Z,37.51
2022-08-12T06:20:26.092Z,36.64
2022-08-12T06:22:47.827Z,37.20
2022-08-12T06:25:21.635Z,35.16
2022-08-12T06:28:07.194Z,35.00
2022-08-12T06:30:38.362Z,34.41
2022-08-12T06:33:24.834Z,34.62
2022-08-12T06:35:57.630Z,32.27
2022-08-12T06:38:27.213Z,31.52
2022-08-12T06:41:19.989Z,30.67
2022-08-12T06:44:05.505Z,30.69
2022-08-12T06:46:36.812Z,30.79
2022-08-12T06:49:03.664Z,31.48
2022-08-12T06:51:32.098Z,31.79
2022-08-12T06:54:00.923Z,32.30
2022-08-12T06:56:46.353Z,32.53
2022-08-12T06:59:15.655Z,31.10
2022-08-12T07:01:50.708Z,30.14
2022-08-12T07:07:10.383Z,30.07
2022-08-12T07:10:00.109Z,29.77
2022-08-12T07:12:30.314Z,29.12
2022-08-12T07:14:58.624Z,28.93
2022-08-12T07:17:26.199Z,28.65
2022-08-12T07:19:53.649Z,28.69
2022-08-12T07:22:23.063Z,28.07
2022-08-12T07:25:09.595Z,27.47
2022-08-12T07:27:40.865Z,27.46
2022-08-12T07:30:08.644Z,27.20
2022-08-12T07:32:35.340Z,26.83
2022-08-12T07:35:04.001Z,26.97
2022-08-12T07:37:31.095Z,27.38
2022-08-12T07:39:59.756Z,27.24
2022-08-12T07:42:28.690Z,26.86
2022-08-12T07:44:56.243Z,26.66
2022-08-12T07:47:23.572Z,26.55
2022-08-12T07:50:05.263Z,26.49
2022-08-12T07:52:34.985Z,24.78
2022-08-12T07:55:03.025Z,27.27
2022-08-12T07:57:32.382Z,26.81
2022-08-12T08:00:03.680Z,24.30
2022-08-12T08:02:33.521Z,24.68
2022-08-12T08:05:00.628Z,23.56
2022-08-12T08:07:30.689Z,23.68
2022-08-12T08:10:02.217Z,24.14
2022-08-12T08:12:48.145Z,23.45
2022-08-12T08:15:20.124Z,23.34
2022-08-12T08:18:02.709Z,22.77
2022-08-12T08:20:39.580Z,22.45
2022-08-12T08:23:09.645Z,22.33
2022-08-12T08:25:38.814Z,21.70
2022-08-12T08:28:10.079Z,23.67
2022-08-12T08:30:42.328Z,22.41
2022-08-12T08:33:22.913Z,23.92
2022-08-12T08:35:54.427Z,23.08
2022-08-12T08:38:32.870Z,22.64
2022-08-12T08:42:16.101Z,23.08
2022-08-12T08:44:10.782Z,22.68
2022-08-12T08:46:38.317Z,22.33
2022-08-12T08:49:05.784Z,22.49
2022-08-12T08:51:32.817Z,22.80
2022-08-12T08:53:59.286Z,23.15
2022-08-12T08:56:27.083Z,22.90
2022-08-12T08:58:53.624Z,23.36
2022-08-12T09:01:21.594Z,23.45
2022-08-12T09:05:08.525Z,23.31
2022-08-12T09:09:23.776Z,22.43
2022-08-12T09:14:55.987Z,23.00
2022-08-12T09:17:24.087Z,23.45
2022-08-12T09:19:57.321Z,22.65
2022-08-12T09:22:28.452Z,23.65
2022-08-12T09:24:55.281Z,23.85
2022-08-12T09:27:25.786Z,23.57
2022-08-12T09:30:15.952Z,24.53
2022-08-12T09:33:04.493Z,23.12
2022-08-12T09:35:43.013Z,22.59
2022-08-12T09:38:27.995Z,23.30
2022-08-12T09:42:08.549Z,23.71
2022-08-12T09:44:05.129Z,22.68
2022-08-12T09:46:32.365Z,23.53
2022-08-12T09:49:01.589Z,22.92
2022-08-12T09:51:35.530Z,23.36
2022-08-12T09:54:08.990Z,22.42
2022-08-12T09:57:02.600Z,24.38
2022-08-12T10:00:17.834Z,24.10
2022-08-12T10:02:44.518Z,23.06
2022-08-12T10:05:05.063Z,22.53
2022-08-12T10:07:40.024Z,23.19
2022-08-12T10:10:22.218Z,22.27
2022-08-12T10:13:10.412Z,22.66
2022-08-12T10:16:02.551Z,23.28
2022-08-12T10:18:32.667Z,23.06
2022-08-12T10:21:05.728Z,23.92
2022-08-12T10:23:40.645Z,23.59
2022-08-12T10:26:36.960Z,22.95
2022-08-12T10:30:03.963Z,23.26
2022-08-12T10:32:42.859Z,22.29
2022-08-12T10:35:07.320Z,22.55
2022-08-12T10:38:34.303Z,22.26
2022-08-12T10:40:28.621Z,22.95
2022-08-12T10:43:17.126Z,22.97
2022-08-12T10:45:46.053Z,22.15
2022-08-12T10:48:21.906Z,21.99
2022-08-12T10:51:02.546Z,22.90
2022-08-12T10:53:45.805Z,22.84
2022-08-12T10:56:18.229Z,22.89
2022-08-12T10:58:47.158Z,22.95
2022-08-12T11:01:49.747Z,22.81
2022-08-12T11:04:27.790Z,22.78
2022-08-12T11:07:06.492Z,21.32
2022-08-12T11:09:54.357Z,20.90
2022-08-12T11:12:55.505Z,22.63
2022-08-12T11:15:18.796Z,23.85
2022-08-12T11:17:53.805Z,24.26
2022-08-12T11:20:24.251Z,23.42
2022-08-12T11:23:03.578Z,23.14
2022-08-12T11:25:56.507Z,21.82
2022-08-12T11:28:33.541Z,21.84
2022-08-12T11:31:02.698Z,22.29
2022-08-12T11:34:06.825Z,22.30
2022-08-12T11:36:17.103Z,21.72
2022-08-12T11:38:50.824Z,22.06
2022-08-12T11:41:31.477Z,21.81
2022-08-12T11:44:31.978Z,21.86
2022-08-12T11:46:52.627Z,21.57
2022-08-12T11:49:31.744Z,22.09
2022-08-12T11:52:02.930Z,21.45
2022-08-12T11:54:30.302Z,20.63
2022-08-12T11:56:59.512Z,20.92
2022-08-12T12:02:17.592Z,20.72
2022-08-12T12:04:45.865Z,21.44
2022-08-12T12:07:21.096Z,20.92
2022-08-12T12:09:51.870Z,20.71
2022-08-12T12:12:19.773Z,21.01
2022-08-12T12:14:54.829Z,20.47
2022-08-12T12:17:25.497Z,21.29
2022-08-12T12:19:53.229Z,21.31
2022-08-12T12:22:26.819Z,21.48
2022-08-12T12:24:57.902Z,22.84
2022-08-12T12:27:42.259Z,23.22
2022-08-12T12:30:19.162Z,21.90
2022-08-12T12:32:55.906Z,22.40
2022-08-12T12:36:16.507Z,21.55
2022-08-12T12:38:14.316Z,21.53
2022-08-12T12:40:44.213Z,21.22
2022-08-12T12:43:12.762Z,21.81
2022-08-12T12:45:44.506Z,23.12
2022-08-12T12:48:17.686Z,22.50
2022-08-12T12:51:12.385Z,21.36
2022-08-12T12:54:06.438Z,20.98
2022-08-12T12:56:31.575Z,20.80
2022-08-12T12:59:03.507Z,21.44
2022-08-12T13:01:31.815Z,21.75
2022-08-12T13:04:02.229Z,22.30
2022-08-12T13:06:31.379Z,21.21
2022-08-12T13:09:02.746Z,22.41
2022-08-12T13:11:39.244Z,20.91
2022-08-12T13:14:12.911Z,20.64
2022-08-12T13:16:54.990Z,20.44
2022-08-12T13:19:36.728Z,20.77
2022-08-12T13:22:20.024Z,20.12
2022-08-12T13:24:56.168Z,19.97
2022-08-12T13:27:50.639Z,21.17
2022-08-12T13:30:23.788Z,20.73
2022-08-12T13:32:58.671Z,22.20
2022-08-12T13:36:05.442Z,21.66
2022-08-12T13:38:35.277Z,20.52
2022-08-12T13:41:03.153Z,20.27
2022-08-12T13:43:40.572Z,20.79
2022-08-12T13:46:12.461Z,21.52
2022-08-12T13:48:44.881Z,20.58
2022-08-12T13:51:12.529Z,20.56
2022-08-12T13:53:55.495Z,20.00
2022-08-12T13:56:34.902Z,19.80
2022-08-12T13:59:05.543Z,20.99
2022-08-12T14:01:35.766Z,21.63
2022-08-12T14:04:08.237Z,21.36
2022-08-12T14:06:38.815Z,20.90
2022-08-12T14:09:17.333Z,21.06
2022-08-12T14:11:59.042Z,20.13
2022-08-12T14:14:31.552Z,20.69
2022-08-12T14:17:05.303Z,20.05
2022-08-12T14:19:37.664Z,20.77
2022-08-12T14:22:10.293Z,20.53
2022-08-12T14:24:40.923Z,20.27
2022-08-12T14:27:10.436Z,21.00
2022-08-12T14:30:05.892Z,20.45
2022-08-12T14:32:34.383Z,20.07
2022-08-12T14:35:02.994Z,19.84
2022-08-12T14:37:57.911Z,20.22
2022-08-12T14:40:18.739Z,20.69
2022-08-12T14:42:52.428Z,21.63
2022-08-12T14:45:22.828Z,21.32
2022-08-12T14:47:53.592Z,22.05
2022-08-12T14:50:58.470Z,21.00
2022-08-12T14:59:23.161Z,20.98
2022-08-12T15:01:51.083Z,20.26
2022-08-12T15:04:24.593Z,20.61
2022-08-12T15:06:53.096Z,20.05
2022-08-12T15:09:28.911Z,20.43
2022-08-12T15:12:03.729Z,20.56
2022-08-12T15:14:31.691Z,20.55
2022-08-12T15:17:00.231Z,21.13
2022-08-12T15:20:28.742Z,20.26
2022-08-12T15:22:37.233Z,19.63
2022-08-12T15:25:03.749Z,19.56
2022-08-12T15:28:03.988Z,19.68
2022-08-12T15:30:22.876Z,19.77
2022-08-12T15:32:50.691Z,20.69
2022-08-12T15:35:17.587Z,20.33
2022-08-12T15:38:08.396Z,20.23
2022-08-12T15:40:31.750Z,19.26
2022-08-12T15:43:08.118Z,20.63
2022-08-12T15:45:37.733Z,20.72
2022-08-12T15:48:20.246Z,20.70
2022-08-12T15:50:53.065Z,20.32
2022-08-12T15:53:40.586Z,19.71
2022-08-12T15:56:12.671Z,20.71
2022-08-12T15:58:41.405Z,20.29
2022-08-12T16:01:14.615Z,20.30
2022-08-12T16:03:54.779Z,19.94
2022-08-12T16:06:52.146Z,20.66
2022-08-12T16:09:21.401Z,20.74
2022-08-12T16:11:50.307Z,20.65
2022-08-12T16:14:16.774Z,20.81
2022-08-12T16:16:43.384Z,20.31
2022-08-12T16:20:02.850Z,19.54
2022-08-12T16:22:07.101Z,20.82
2022-08-12T16:24:43.519Z,20.61
2022-08-12T16:27:12.829Z,21.25
2022-08-12T16:29:53.168Z,20.78
2022-08-12T16:32:23.143Z,21.07
2022-08-12T16:34:56.013Z,20.80
2022-08-12T16:37:32.449Z,20.58
2022-08-12T16:40:11.896Z,20.23
2022-08-12T16:42:54.216Z,21.13
2022-08-12T16:46:05.456Z,21.38
2022-08-12T16:48:34.923Z,20.93
2022-08-12T16:51:10.567Z,21.52
2022-08-12T16:53:44.523Z,21.41
2022-08-12T16:56:14.992Z,21.44
2022-08-12T16:58:41.953Z,21.67
2022-08-12T17:01:16.300Z,21.58
2022-08-12T17:03:46.976Z,21.27
2022-08-12T17:06:27.412Z,21.64
2022-08-12T17:09:02.692Z,21.25
2022-08-12T17:11:33.317Z,21.54
2022-08-12T17:14:03.510Z,21.47
2022-08-12T17:16:30.536Z,21.04
2022-08-12T17:19:03.102Z,20.85
2022-08-12T17:21:40.821Z,21.42
2022-08-12T17:24:22.414Z,21.54
2022-08-12T17:26:59.692Z,22.12
2022-08-12T17:30:00.376Z,21.49
2022-08-12T17:32:14.274Z,21.97
2022-08-12T17:35:00.162Z,22.15
2022-08-12T17:37:27.248Z,23.43
2022-08-12T17:40:11.984Z,23.13
2022-08-12T17:42:43.523Z,23.58
2022-08-12T17:45:19.761Z,23.01
2022-08-12T17:48:01.846Z,23.16
2022-08-12T17:50:34.397Z,22.83
2022-08-12T17:53:02.391Z,22.97
2022-08-12T17:55:40.206Z,23.55
2022-08-12T17:58:14.245Z,23.05
2022-08-12T18:00:44.181Z,24.26
2022-08-12T18:03:57.480Z,23.90
2022-08-12T18:06:08.075Z,23.71
2022-08-12T18:08:54.818Z,24.40
2022-08-12T18:12:05.035Z,23.82
2022-08-12T18:14:28.989Z,24.06
2022-08-12T18:17:00.615Z,23.83
2022-08-12T18:20:03.853Z,24.22
2022-08-12T18:22:21.937Z,24.44
2022-08-12T18:25:04.108Z,24.48
2022-08-12T18:27:44.981Z,24.85
2022-08-12T18:30:16.520Z,24.32
2022-08-12T18:33:03.405Z,24.43
2022-08-12T18:35:47.474Z,23.97
2022-08-12T18:38:22.067Z,24.15
2022-08-12T18:41:09.854Z,24.36
2022-08-12T18:43:59.028Z,24.91
2022-08-12T18:46:32.019Z,24.48
2022-08-12T18:49:18.170Z,24.84
2022-08-12T18:51:54.775Z,24.75
2022-08-12T18:54:23.558Z,24.56
2022-08-12T18:56:53.988Z,25.03
2022-08-12T19:00:06.033Z,26.33
2022-08-12T19:02:19.166Z,25.45
2022-08-12T19:04:52.900Z,25.51
2022-08-12T19:07:23.549Z,26.10
2022-08-12T19:10:00.055Z,25.66
2022-08-12T19:12:55.491Z,25.79
2022-08-12T19:15:25.614Z,25.77
2022-08-12T19:18:00.697Z,26.01
2022-08-12T19:20:29.953Z,25.77
2022-08-12T19:22:59.730Z,26.53
2022-08-12T19:25:59.729Z,26.58
2022-08-12T19:28:30.326Z,27.25
2022-08-12T19:31:56.063Z,27.86
2022-08-12T19:38:02.771Z,28.80
2022-08-12T19:40:32.578Z,29.09
2022-08-12T19:43:19.124Z,29.54
2022-08-12T19:45:54.389Z,29.24
2022-08-12T19:48:24.856Z,29.62
2022-08-12T19:50:55.497Z,29.59
2022-08-12T19:53:23.951Z,30.07
2022-08-12T19:55:53.008Z,30.09
2022-08-12T19:58:20.793Z,29.81
2022-08-12T20:00:53.094Z,29.95
2022-08-12T20:03:38.794Z,30.29
2022-08-12T20:06:13.680Z,30.70
2022-08-12T20:08:47.912Z,30.92
2022-08-12T20:12:12.969Z,30.92
2022-08-12T20:14:08.689Z,31.22
2022-08-12T20:16:57.206Z,31.44
2022-08-12T20:19:53.276Z,31.89
2022-08-12T20:22:15.010Z,31.93
2022-08-12T20:24:50.962Z,32.22
2022-08-12T20:27:29.784Z,32.46
2022-08-12T20:30:11.478Z,32.61
2022-08-12T20:33:00.952Z,31.94
2022-08-12T20:36:06.953Z,32.79
2022-08-12T20:38:26.598Z,31.54
2022-08-12T20:40:55.118Z,31.94
2022-08-12T20:43:24.081Z,32.13
2022-08-12T20:45:58.145Z,32.23
2022-08-12T20:48:28.707Z,32.61
2022-08-12T20:50:57.879Z,33.20
2022-08-12T20:53:53.753Z,32.90
2022-08-12T20:56:30.603Z,32.88
2022-08-12T20:59:00.852Z,32.60
2022-08-12T21:01:36.828Z,32.82
2022-08-12T21:04:34.289Z,32.83
2022-08-12T21:07:08.678Z,32.96
2022-08-12T21:09:48.627Z,33.19
2022-08-12T21:12:27.549Z,33.05
2022-08-12T21:15:16.603Z,33.14
2022-08-12T21:18:09.238Z,33.48
2022-08-12T21:20:34.326Z,33.57
2022-08-12T21:23:04.245Z,33.61
2022-08-12T21:25:36.357Z,33.43
2022-08-12T21:28:11.527Z,33.95
2022-08-12T21:30:54.673Z,34.56
2022-08-12T21:33:31.094Z,34.38
2022-08-12T21:35:58.179Z,34.56
2022-08-12T21:38:30.553Z,34.53
2022-08-12T21:41:01.743Z,35.19
2022-08-12T21:43:44.521Z,35.19
2022-08-12T21:46:14.796Z,36.06
2022-08-12T21:49:03.999Z,36.07
2022-08-12T21:51:49.234Z,37.32
2022-08-12T21:54:23.405Z,37.50
2022-08-12T21:56:53.519Z,38.33
2022-08-12T21:59:21.700Z,38.25
2022-08-12T22:01:49.462Z,38.67
2022-08-12T22:04:35.396Z,38.42
2022-08-12T22:07:02.043Z,38.29
2022-08-12T22:09:30.291Z,37.27
2022-08-12T22:12:28.958Z,37.54
2022-08-12T22:14:55.468Z,36.77
2022-08-12T22:17:33.469Z,37.10
2022-08-12T22:20:17.024Z,37.01
2022-08-12T22:22:53.831Z,37.35
2022-08-12T22:25:24.157Z,37.28
2022-08-12T22:28:12.317Z,37.32
2022-08-12T22:30:57.302Z,37.27
2022-08-12T22:33:23.784Z,37.51
2022-08-12T22:35:59.789Z,37.68
2022-08-12T22:38:29.728Z,38.20
2022-08-12T22:41:00.929Z,38.54
2022-08-12T22:44:00.060Z,38.98
2022-08-12T22:46:52.560Z,38.89
2022-08-12T22:49:37.324Z,39.15
2022-08-12T22:52:12.594Z,39.14
2022-08-12T22:54:59.904Z,39.61
2022-08-12T22:57:53.713Z,39.43
2022-08-12T23:00:24.727Z,39.48
2022-08-12T23:02:56.758Z,39.71
2022-08-12T23:05:36.758Z,39.66
2022-08-12T23:08:13.945Z,40.47
2022-08-12T23:10:45.006Z,40.01
2022-08-12T23:13:43.537Z,40.00
2022-08-12T23:16:28.477Z,40.18
2022-08-12T23:18:59.900Z,40.43
2022-08-12T23:21:40.420Z,40.55
2022-08-12T23:24:16.957Z,40.79
2022-08-12T23:27:03.515Z,40.70
2022-08-12T23:29:43.328Z,40.52
2022-08-12T23:32:13.409Z,40.94
2022-08-12T23:35:02.572Z,40.97
2022-08-12T23:37:46.355Z,41.11
2022-08-12T23:40:17.975Z,41.36
2022-08-12T23:42:45.273Z,41.56
2022-08-12T23:45:20.581Z,41.93
2022-08-12T23:47:59.787Z,43.00
2022-08-12T23:50:33.780Z,43.88
2022-08-12T23:53:05.751Z,43.71
2022-08-12T23:55:35.833Z,44.45
2022-08-12T23:58:23.169Z,44.50
